Terminal Aerodrome Forecast
Issued by NWS

Home | Current Version | Previous Version | Text Only | Print | Product List | Glossary On
Versions: 1 2 3 4 5 6 7 8 9 10 11 12 13 14 15 16
129
FTUS42 KTBW 210537
TAFPIE
TAF
KPIE 210537Z 2106/2206 10009KT P6SM FEW050 BKN250
     FM210900 08008KT P6SM SCT050 OVC100
     FM211500 11008KT P6SM VCSH SCT035 BKN050 OVC080
     FM211800 11007KT 6SM -RA VCTS SCT020CB BKN035 OVC050
      TEMPO 2118/2122 3SM RA BKN020 OVC040
     FM220000 07005KT P6SM VCSH SCT030 OVC050=

USA.gov is the U.S. government's official web portal to all federal, state and local government web resources and services.